»·PEaware :: N27JP KSBD-KEMT

N27JP :: KSBD-KEMT

FLIGHT INFORMATION

Flight Status: Arrived
Operator: Privately registered:
United States
More flights under this callsign
Pilot: Weston J. (31543)
Aircraft: CESSNA 172 SKYHAWK
(C172)
More flights by this aircraft type
Origin: KSBD San Bernardino Intl
United States
Destination: KEMT El Monte
United States
More flights between these airports :: More routes between these airports
Route: +
File this flight plan on PilotEdge
Remarks: CAT-07 Rating
Altitude:
(Current/Filed)
4,500ft
Speed:
(Current/Filed)
110kts
Departed: 26-Sep-20 01:16 PM
Arrived: 26-Sep-20 01:42 PM
Distance/Time
Traveled:
6737nm/0:26
Distance/Time
To Go:
Arrived

Flight Plot

Page will automatically refresh every two minutes.


Map Options




Map Legend


Flown Route
Filed Route
Departure Airport
Arrival Airport
Navaid (VOR, NDB)
Fix

Horizontal Profiles

Position Reports

Time Latitude Longitude Heading Altitude Ground
Speed
26-Sep-20 12:54 34.101447 -117.225117 271 1152ft 0kts
26-Sep-20 12:55 34.101447 -117.225117 271 1152ft 0kts
26-Sep-20 12:56 34.101447 -117.225117 271 1152ft 0kts
26-Sep-20 12:57 34.101447 -117.225117 271 1152ft 0kts
26-Sep-20 12:58 34.101447 -117.225117 271 1152ft 0kts
26-Sep-20 12:59 34.101447 -117.225117 271 1152ft 0kts
26-Sep-20 13:00 34.101447 -117.225117 271 1152ft 0kts
26-Sep-20 13:01 34.101447 -117.225117 271 1152ft 0kts
26-Sep-20 13:02 34.101447 -117.225117 271 1152ft 0kts
26-Sep-20 13:03 34.101447 -117.225117 271 1152ft 0kts
26-Sep-20 13:04 34.101447 -117.225117 271 1152ft 0kts
26-Sep-20 13:05 34.101447 -117.225117 271 1152ft 0kts
26-Sep-20 13:06 34.100890 -117.225322 227 1152ft 6kts
26-Sep-20 13:07 34.100070 -117.228394 287 1142ft 16kts
26-Sep-20 13:08 34.099036 -117.228800 251 1141ft 18kts
26-Sep-20 13:09 34.097170 -117.235027 250 1129ft 21kts
26-Sep-20 13:10 34.095340 -117.241212 249 1106ft 21kts
26-Sep-20 13:11 34.093689 -117.246715 250 1099ft 14kts
26-Sep-20 13:12 34.092038 -117.251026 165 1087ft 11kts
26-Sep-20 13:13 34.091621 -117.250866 162 1086ft 0kts
26-Sep-20 13:14 34.091621 -117.250866 162 1086ft 0kts
26-Sep-20 13:15 34.093095 -117.242527 70 1130ft 78kts
26-Sep-20 13:16 34.101922 -117.214276 67 1853ft 90kts
26-Sep-20 13:17 34.085835 -117.200485 228 2299ft 112kts
26-Sep-20 13:18 34.074427 -117.237062 250 2498ft 125kts
26-Sep-20 13:19 34.062964 -117.276452 256 2500ft 120kts
26-Sep-20 13:20 34.067838 -117.314645 270 2498ft 116kts
26-Sep-20 13:21 34.068117 -117.353416 270 2500ft 115kts
26-Sep-20 13:22 34.077303 -117.389481 300 2499ft 115kts
26-Sep-20 13:23 34.093982 -117.422505 300 2501ft 116kts
26-Sep-20 13:24 34.105556 -117.457215 265 2501ft 114kts
26-Sep-20 13:25 34.105836 -117.495738 270 2501ft 115kts
26-Sep-20 13:26 34.106258 -117.534456 270 2500ft 115kts
26-Sep-20 13:27 34.106691 -117.573251 270 2499ft 115kts
26-Sep-20 13:28 34.107120 -117.611976 270 2501ft 115kts
26-Sep-20 13:29 34.107533 -117.650692 270 2499ft 115kts
26-Sep-20 13:30 34.107947 -117.689517 270 2500ft 115kts
26-Sep-20 13:31 34.108383 -117.728220 270 2501ft 115kts
26-Sep-20 13:32 34.108813 -117.766973 270 2498ft 115kts
26-Sep-20 13:33 34.109244 -117.804887 270 2499ft 106kts
26-Sep-20 13:34 34.109639 -117.839185 270 2500ft 103kts
26-Sep-20 13:35 34.110008 -117.872032 270 2501ft 102kts
26-Sep-20 13:36 34.115002 -117.904551 285 2498ft 102kts
26-Sep-20 13:37 34.118395 -117.936575 252 2255ft 117kts
26-Sep-20 13:38 34.120449 -117.974602 289 1860ft 113kts
26-Sep-20 13:39 34.122691 -118.010807 230 1322ft 120kts
26-Sep-20 13:40 34.104704 -118.023962 210 834ft 80kts
26-Sep-20 13:41 34.087586 -118.033985 205 299ft 37kts
26-Sep-20 13:42 34.085372 -118.034619 164 293ft 5kts
26-Sep-20 13:43 34.084022 -118.034815 205 289ft 0kts
26-Sep-20 13:44 34.084022 -118.034815 205 289ft 0kts
26-Sep-20 13:45 0.000408 0.013975 0 3ft 0kts
26-Sep-20 13:46 0.000408 0.013975 0 3ft 0kts
26-Sep-20 13:47 0.000408 0.013975 0 3ft 0kts
26-Sep-20 13:48 0.000408 0.013975 0 3ft 0kts
26-Sep-20 13:49 0.000408 0.013975 0 3ft 0kts
26-Sep-20 13:50 0.000408 0.013975 0 3ft 0kts
26-Sep-20 13:51 0.000408 0.013975 0 3ft 0kts
26-Sep-20 13:52 0.000408 0.013975 0 3ft 0kts
26-Sep-20 13:53 0.000408 0.013975 0 3ft 0kts
26-Sep-20 13:54 0.000408 0.013975 0 3ft 0kts
26-Sep-20 13:55 0.000408 0.013975 0 3ft 0kts

Navigation Log

Ident Type
Flight plan parsing failed, navigation log unavailable